createdAt,value
2023-05-03T00:01:08.670Z,21.05
2023-05-03T00:06:15.277Z,21.09
2023-05-03T00:11:17.309Z,21.07
2023-05-03T00:16:20.285Z,21.06
2023-05-03T00:21:22.518Z,21.09
2023-05-03T00:26:24.554Z,21.04
2023-05-03T00:31:26.633Z,21.01
2023-05-03T00:36:28.612Z,21.04
2023-05-03T00:41:30.733Z,21.04
2023-05-03T00:46:32.821Z,21.00
2023-05-03T00:51:35.812Z,21.01
2023-05-03T00:56:48.427Z,21.01
2023-05-03T01:01:53.569Z,21.01
2023-05-03T01:07:07.806Z,20.97
2023-05-03T01:12:19.693Z,21.00
2023-05-03T01:17:27.379Z,21.02
2023-05-03T01:22:50.884Z,20.97
2023-05-03T01:27:52.995Z,21.00
2023-05-03T01:33:04.233Z,20.95
2023-05-03T01:38:06.564Z,21.02
2023-05-03T01:43:12.568Z,20.99
2023-05-03T01:48:17.046Z,20.96
2023-05-03T01:53:19.049Z,21.01
2023-05-03T01:58:21.207Z,20.96
2023-05-03T02:03:23.341Z,20.95
2023-05-03T02:08:25.343Z,20.97
2023-05-03T02:13:27.320Z,20.92
2023-05-03T02:18:31.676Z,20.94
2023-05-03T02:23:33.410Z,20.89
2023-05-03T02:28:35.538Z,20.98
2023-05-03T02:33:37.413Z,20.94
2023-05-03T02:38:39.617Z,20.94
2023-05-03T02:43:41.611Z,20.92
2023-05-03T02:48:43.742Z,20.92
2023-05-03T02:53:46.052Z,20.86
2023-05-03T02:58:47.875Z,20.90
2023-05-03T03:08:51.925Z,20.96
2023-05-03T03:13:54.159Z,20.92
2023-05-03T03:18:56.172Z,20.87
2023-05-03T03:23:58.334Z,20.94
2023-05-03T03:29:01.465Z,20.90
2023-05-03T03:34:03.422Z,20.90
2023-05-03T03:39:06.154Z,20.87
2023-05-03T03:44:07.972Z,20.86
2023-05-03T03:49:10.078Z,20.85
2023-05-03T03:54:12.251Z,20.85
2023-05-03T03:59:14.335Z,20.91
2023-05-03T04:04:16.517Z,20.85
2023-05-03T04:09:18.856Z,20.86
2023-05-03T04:14:21.159Z,20.86
2023-05-03T04:19:24.201Z,20.87
2023-05-03T04:24:26.163Z,20.86
2023-05-03T04:29:28.255Z,20.87
2023-05-03T04:34:31.614Z,20.86
2023-05-03T04:39:34.135Z,20.86
2023-05-03T04:44:36.239Z,20.81
2023-05-03T04:49:39.593Z,20.78
2023-05-03T04:54:42.108Z,20.83
2023-05-03T04:59:44.069Z,20.80
2023-05-03T05:04:46.163Z,20.78
2023-05-03T05:09:48.276Z,20.76
2023-05-03T05:14:50.372Z,20.79
2023-05-03T05:19:52.426Z,20.86
2023-05-03T05:24:54.592Z,20.82
2023-05-03T05:29:56.725Z,20.83
2023-05-03T05:34:58.628Z,20.82
2023-05-03T05:40:00.986Z,20.88
2023-05-03T05:45:03.285Z,20.84
2023-05-03T05:50:17.082Z,20.82
2023-05-03T05:55:21.570Z,20.84
2023-05-03T06:00:24.581Z,20.84
2023-05-03T06:05:26.554Z,20.83
2023-05-03T06:10:28.621Z,20.84
2023-05-03T06:15:30.650Z,20.81
2023-05-03T06:20:32.606Z,20.85
2023-05-03T06:25:36.521Z,20.83
2023-05-03T06:30:38.543Z,20.80
2023-05-03T06:35:41.354Z,20.82
2023-05-03T06:40:45.469Z,20.78
2023-05-03T06:45:48.463Z,20.77
2023-05-03T06:50:51.145Z,21.06
2023-05-03T06:55:53.343Z,21.27
2023-05-03T07:00:55.208Z,21.46
2023-05-03T07:05:57.283Z,21.46
2023-05-03T07:10:59.372Z,21.42
2023-05-03T07:16:03.496Z,21.63
2023-05-03T07:21:09.194Z,21.28
2023-05-03T07:26:11.615Z,21.49
2023-05-03T07:31:14.663Z,21.58
2023-05-03T07:36:16.773Z,21.64
2023-05-03T07:41:19.450Z,21.70
2023-05-03T07:46:21.879Z,21.67
2023-05-03T07:51:24.014Z,21.71
2023-05-03T07:56:28.095Z,21.71
2023-05-03T08:01:30.143Z,21.70
2023-05-03T08:06:33.538Z,21.48
2023-05-03T08:11:35.509Z,21.64
2023-05-03T08:16:37.503Z,21.76
2023-05-03T08:21:39.526Z,21.72
2023-05-03T08:26:42.192Z,21.75
2023-05-03T08:31:44.291Z,21.67
2023-05-03T08:36:46.668Z,21.60
2023-05-03T08:41:48.775Z,21.66
2023-05-03T08:46:51.415Z,21.15
2023-05-03T08:51:54.236Z,21.04
2023-05-03T08:56:56.329Z,21.00
2023-05-03T09:01:58.489Z,20.99
2023-05-03T09:07:10.942Z,20.98
2023-05-03T09:12:13.488Z,20.96
2023-05-03T09:17:17.237Z,20.92
2023-05-03T09:22:19.837Z,20.95
2023-05-03T09:27:22.358Z,21.41
2023-05-03T09:32:25.594Z,21.49
2023-05-03T09:37:39.138Z,21.52
2023-05-03T09:42:47.746Z,21.50
2023-05-03T09:47:56.142Z,21.51
2023-05-03T09:53:02.014Z,21.43
2023-05-03T09:58:07.627Z,21.45
2023-05-03T10:03:18.683Z,21.40
2023-05-03T10:08:27.096Z,21.46
2023-05-03T10:13:30.975Z,21.41
2023-05-03T10:18:35.180Z,21.42
2023-05-03T10:23:37.264Z,21.40
2023-05-03T10:28:42.261Z,21.37
2023-05-03T10:33:44.264Z,21.20
2023-05-03T10:38:46.915Z,21.37
2023-05-03T10:43:49.045Z,21.29
2023-05-03T10:49:18.218Z,21.29
2023-05-03T10:54:20.672Z,21.42
2023-05-03T10:59:24.644Z,21.21
2023-05-03T11:04:36.971Z,21.23
2023-05-03T11:09:39.232Z,21.08
2023-05-03T11:14:42.853Z,21.11
2023-05-03T11:19:44.967Z,21.09
2023-05-03T11:24:47.451Z,21.17
2023-05-03T11:29:50.045Z,21.28
2023-05-03T11:34:52.335Z,21.29
2023-05-03T11:39:54.472Z,21.37
2023-05-03T11:44:56.788Z,21.40
2023-05-03T11:49:58.983Z,21.41
2023-05-03T11:55:01.924Z,21.38
2023-05-03T12:00:22.484Z,21.35
2023-05-03T12:05:25.360Z,21.39
2023-05-03T12:10:33.616Z,21.39
2023-05-03T12:15:40.873Z,21.37
2023-05-03T12:21:28.957Z,21.37
2023-05-03T12:26:05.752Z,21.38
2023-05-03T12:31:08.230Z,21.39
2023-05-03T12:36:14.498Z,21.32
2023-05-03T12:41:33.169Z,21.27
2023-05-03T12:46:39.770Z,21.33
2023-05-03T12:51:42.703Z,21.34
2023-05-03T12:56:48.059Z,21.40
2023-05-03T13:06:59.789Z,21.31
2023-05-03T13:12:02.690Z,21.32
2023-05-03T13:17:04.980Z,21.29
2023-05-03T13:22:07.216Z,21.25
2023-05-03T13:27:10.877Z,21.27
2023-05-03T13:32:13.393Z,21.34
2023-05-03T13:37:19.087Z,21.34
2023-05-03T13:42:21.338Z,21.38
2023-05-03T13:47:24.112Z,21.40
2023-05-03T13:52:26.484Z,21.38
2023-05-03T13:57:29.274Z,21.37
2023-05-03T14:02:33.882Z,21.44
2023-05-03T14:07:37.010Z,21.43
2023-05-03T14:12:50.290Z,21.44
2023-05-03T14:17:57.191Z,21.36
2023-05-03T14:23:01.535Z,21.25
2023-05-03T14:28:06.092Z,21.19
2023-05-03T14:33:10.829Z,21.29
2023-05-03T14:38:15.170Z,21.41
2023-05-03T14:43:17.442Z,21.54
2023-05-03T14:48:20.761Z,21.45
2023-05-03T14:53:24.530Z,21.46
2023-05-03T14:58:27.809Z,21.52
2023-05-03T15:03:31.446Z,21.48
2023-05-03T15:08:34.246Z,21.48
2023-05-03T15:13:36.849Z,21.39
2023-05-03T15:18:39.967Z,21.46
2023-05-03T15:23:43.644Z,21.51
2023-05-03T15:28:46.279Z,21.54
2023-05-03T15:33:48.392Z,21.31
2023-05-03T15:38:50.935Z,21.27
2023-05-03T15:43:53.094Z,21.37
2023-05-03T15:48:55.351Z,21.17
2023-05-03T15:53:57.405Z,21.11
2023-05-03T15:58:59.493Z,21.06
2023-05-03T16:04:01.772Z,20.95
2023-05-03T16:09:04.545Z,21.01
2023-05-03T16:14:09.819Z,20.99
2023-05-03T16:19:12.357Z,21.08
2023-05-03T16:24:14.420Z,21.03
2023-05-03T16:29:17.294Z,21.01
2023-05-03T16:34:19.276Z,21.04
2023-05-03T16:39:21.637Z,21.02
2023-05-03T16:44:23.784Z,21.04
2023-05-03T16:49:25.986Z,21.08
2023-05-03T16:54:28.510Z,21.13
2023-05-03T16:59:30.528Z,21.20
2023-05-03T17:04:32.616Z,21.20
2023-05-03T17:09:34.565Z,21.26
2023-05-03T17:14:36.707Z,21.31
2023-05-03T17:19:39.239Z,21.39
2023-05-03T17:24:41.222Z,21.50
2023-05-03T17:29:43.457Z,21.46
2023-05-03T17:34:45.568Z,21.52
2023-05-03T17:39:47.738Z,21.60
2023-05-03T17:44:52.508Z,21.58
2023-05-03T17:49:54.512Z,21.61
2023-05-03T17:54:57.335Z,21.59
2023-05-03T17:59:59.489Z,21.41
2023-05-03T18:05:02.556Z,21.39
2023-05-03T18:10:06.188Z,21.30
2023-05-03T18:15:09.132Z,21.51
2023-05-03T18:20:11.911Z,21.57
2023-05-03T18:25:14.312Z,21.58
2023-05-03T18:30:16.549Z,21.50
2023-05-03T18:35:18.910Z,21.49
2023-05-03T18:40:21.013Z,21.46
2023-05-03T18:45:23.316Z,21.46
2023-05-03T18:50:25.335Z,21.48
2023-05-03T18:55:27.589Z,21.49
2023-05-03T19:00:30.083Z,21.47
2023-05-03T19:05:32.055Z,21.45
2023-05-03T19:10:34.416Z,21.46
2023-05-03T19:15:36.774Z,21.42
2023-05-03T19:20:39.398Z,21.45
2023-05-03T19:25:41.502Z,21.45
2023-05-03T19:30:46.215Z,21.41
2023-05-03T19:35:48.852Z,21.42
2023-05-03T19:40:58.541Z,21.40
2023-05-03T19:46:00.587Z,21.24
2023-05-03T19:51:05.527Z,21.47
2023-05-03T19:56:09.773Z,21.40
2023-05-03T20:01:11.752Z,21.42
2023-05-03T20:06:14.743Z,21.41
2023-05-03T20:11:16.750Z,21.38
2023-05-03T20:16:20.891Z,21.25
2023-05-03T20:21:23.802Z,21.29
2023-05-03T20:26:25.973Z,21.32
2023-05-03T20:31:27.965Z,21.34
2023-05-03T20:36:30.054Z,21.37
2023-05-03T20:41:32.599Z,21.32
2023-05-03T20:46:35.634Z,21.36
2023-05-03T20:51:37.603Z,21.36
2023-05-03T20:56:39.562Z,21.32
2023-05-03T21:01:41.615Z,21.38
2023-05-03T21:06:45.198Z,21.36
2023-05-03T21:11:47.427Z,21.32
2023-05-03T21:16:49.495Z,21.35
2023-05-03T21:21:51.449Z,21.36
2023-05-03T21:26:53.463Z,21.35
2023-05-03T21:31:55.483Z,21.34
2023-05-03T21:36:57.583Z,21.34
2023-05-03T21:42:00.112Z,21.34
2023-05-03T21:47:03.178Z,21.34
2023-05-03T21:52:06.009Z,21.35
2023-05-03T21:57:08.047Z,21.34
2023-05-03T22:02:10.032Z,21.29
2023-05-03T22:07:12.090Z,21.32
2023-05-03T22:12:23.314Z,21.32
2023-05-03T22:17:27.406Z,21.33
2023-05-03T22:22:29.355Z,21.28
2023-05-03T22:27:31.411Z,21.29
2023-05-03T22:32:33.634Z,21.28
2023-05-03T22:37:35.590Z,21.28
2023-05-03T22:42:38.066Z,21.29
2023-05-03T22:47:40.398Z,21.28
2023-05-03T22:52:42.508Z,21.28
2023-05-03T22:57:44.555Z,21.31
2023-05-03T23:02:47.013Z,21.29
2023-05-03T23:07:49.489Z,21.27
2023-05-03T23:12:51.642Z,21.29
2023-05-03T23:17:53.695Z,21.28
2023-05-03T23:22:55.962Z,21.27
2023-05-03T23:27:57.997Z,21.31
2023-05-03T23:33:00.374Z,21.27
2023-05-03T23:38:02.973Z,21.28
2023-05-03T23:43:05.037Z,21.26
2023-05-03T23:48:07.558Z,21.29
2023-05-03T23:53:09.690Z,21.26
2023-05-03T23:58:11.852Z,21.28
